MSC Bettina — HPFG — position and weather

sailwx.info

Track history (hours):
 
Tides and Currents Weather Stations Pressure Air Temp Water Temp Dewpoint Dewpoint Depression Visibility Wind Speed Wind Dir Waves Ship Positions

MSC Bettina

Last reported at 2016-Feb-09 23:18 UTC. Time now 2016-Feb-11 17:11 UTC.
Position N 22°53' E 117°32'.

Length 366 m; draft 15 m.

Type: Ship (hazmat cat A). MMSI: 352361000.

Date/timePositionNaut miles runAvg speedWind from/ knotsBaromVisibWave heightAir tempDewpointWater temp
2016-Feb-09 23:18N 22°53' E 117°32'1621.4
2016-Feb-09 22:33N 23°07' E 117°39'2321.7
2016-Feb-09 21:30N 23°27' E 117°51'2122.0
2016-Feb-09 20:33N 23°43' E 118°05'2222.0
2016-Feb-09 19:32N 24°03' E 118°17'1616.3
2016-Feb-09 18:33N 24°18' E 118°12'1312.8
2016-Feb-09 17:32N 24°26' E 118°01'0 0.2
2016-Feb-09 16:32N 24°27' E 118°01'0 0.0
2016-Feb-09 15:32N 24°27' E 118°01'0 0.0
2016-Feb-09 14:32N 24°27' E 118°01'0 0.0
2016-Feb-09 13:32N 24°27' E 118°01'0 0.0
2016-Feb-09 12:32N 24°27' E 118°01'0 0.0
2016-Feb-09 11:29N 24°27' E 118°01'0 0.0
2016-Feb-09 10:32N 24°27' E 118°01'0 0.0
2016-Feb-09 09:32N 24°27' E 118°01'0 0.0
2016-Feb-09 08:32N 24°27' E 118°01'0 0.0
2016-Feb-09 07:32N 24°27' E 118°01'0 0.0
2016-Feb-09 06:32N 24°27' E 118°01'0 0.0
2016-Feb-09 05:29N 24°27' E 118°01'0 0.0
2016-Feb-09 04:32N 24°27' E 118°01'0 0.0
2016-Feb-09 03:26N 24°27' E 118°01'0 0.0
2016-Feb-09 02:32N 24°27' E 118°01'0 0.0
2016-Feb-09 01:32N 24°27' E 118°01'0 0.0
2016-Feb-09 00:32N 24°27' E 118°01'0 0.0
2016-Feb-08 23:32N 24°27' E 118°01'0 0.0
2016-Feb-08 22:29N 24°27' E 118°01'0 0.0
2016-Feb-08 21:29N 24°27' E 118°01'0 0.0
2016-Feb-08 20:32N 24°27' E 118°01'0 0.0
2016-Feb-08 19:32N 24°27' E 118°01'0 0.0
2016-Feb-08 18:32N 24°27' E 118°01'0 0.0
2016-Feb-08 17:32N 24°27' E 118°01'0 0.0
2016-Feb-08 16:32N 24°27' E 118°01'0 0.0
2016-Feb-08 15:32N 24°27' E 118°01'0 0.0
2016-Feb-08 14:32N 24°27' E 118°01'0 0.0
2016-Feb-08 13:32N 24°27' E 118°01'0 0.0
2016-Feb-08 12:31N 24°27' E 118°01'0 0.0
2016-Feb-08 11:25N 24°27' E 118°01'0 0.0
2016-Feb-08 10:31N 24°27' E 118°01'0 0.1
2016-Feb-08 09:33N 24°27' E 118°01'7 7.2
2016-Feb-08 08:33N 24°23' E 118°08'1312.9
2016-Feb-08 07:33N 24°14' E 118°18'1615.8
2016-Feb-08 06:33N 24°15' E 118°35'1818.0
2016-Feb-08 05:33N 24°20' E 118°54'1917.9
2016-Feb-08 04:28N 24°30' E 119°12'1617.4
2016-Feb-08 03:34N 24°39' E 119°27'1717.0
2016-Feb-08 02:33N 24°48' E 119°43'1817.3
2016-Feb-08 01:32N 24°58' E 119°59'2118.7
2016-Feb-08 00:25N 25°10' E 120°17'1618.9
2016-Feb-07 23:33N 25°19' E 120°32'27517.8
2016-Feb-07 08:07N 29°33' E 122°31'1616.3
2016-Feb-07 07:10N 29°44' E 122°20'813.6
2016-Feb-07 06:34N 29°50' E 122°13'9 1.1
2016-Feb-06 22:29N 29°53' E 122°03'0 0.0
2016-Feb-06 07:09N 29°53' E 122°03'0 0.0
2016-Feb-05 22:31N 29°53' E 122°03'2 1.9
2016-Feb-05 21:33N 29°55' E 122°04'1110.6
2016-Feb-05 20:33N 29°49' E 122°14'10 8.5
2016-Feb-05 19:26N 29°44' E 122°23'12 1.4
2016-Feb-05 11:04N 29°44' E 122°37'3 0.1
2016-Feb-04 11:31N 29°45' E 122°39'1915.2
2016-Feb-04 10:16N 30°01' E 122°51'1714.5
2016-Feb-04 09:08N 30°18' E 122°52'814.6
2016-Feb-04 08:33N 30°25' E 122°47'1414.4
2016-Feb-04 07:33N 30°30' E 122°31'1414.0
2016-Feb-04 06:31N 30°33' E 122°15'1210.4
2016-Feb-04 05:24N 30°38' E 122°03'0 0.0
2016-Feb-03 15:12N 30°38' E 122°03'1 2.2
2016-Feb-03 14:33N 30°37' E 122°04'1111.3
2016-Feb-03 13:33N 30°33' E 122°17'8 7.8
2016-Feb-03 12:33N 30°32' E 122°25'1915.9
2016-Feb-03 11:23N 30°27' E 122°46'  
2016-Jan-31 12:23N 30°22' E 122°47'0 0.0
2016-Jan-31 11:18N 30°22' E 122°47'0 0.1
2016-Jan-31 10:31N 30°22' E 122°47'0 0.0
2016-Jan-31 09:26N 30°22' E 122°47'0 0.1
2016-Jan-31 08:32N 30°22' E 122°47'  
Track history (hours):
 
Tides and Currents Weather Stations Pressure Air Temp Water Temp Dewpoint Dewpoint Depression Visibility Wind Speed Wind Dir Waves Ship Positions

MSC Bettina

Last reported at 2016-Feb-09 23:18 UTC. Time now 2016-Feb-11 17:11 UTC.
Position N 22°53' E 117°32'.

Length 366 m; draft 15 m.

Type: Ship (hazmat cat A). MMSI: 352361000.

Date/timePositionNaut miles runAvg speedWind from/ knotsBaromVisibWave heightAir tempDewpointWater temp
2016-Feb-09 23:18N 22°53' E 117°32'1621.4
2016-Feb-09 22:33N 23°07' E 117°39'2321.7
2016-Feb-09 21:30N 23°27' E 117°51'2122.0
2016-Feb-09 20:33N 23°43' E 118°05'2222.0
2016-Feb-09 19:32N 24°03' E 118°17'1616.3
2016-Feb-09 18:33N 24°18' E 118°12'1312.8
2016-Feb-09 17:32N 24°26' E 118°01'0 0.2
2016-Feb-09 16:32N 24°27' E 118°01'0 0.0
2016-Feb-09 15:32N 24°27' E 118°01'0 0.0
2016-Feb-09 14:32N 24°27' E 118°01'0 0.0
2016-Feb-09 13:32N 24°27' E 118°01'0 0.0
2016-Feb-09 12:32N 24°27' E 118°01'0 0.0
2016-Feb-09 11:29N 24°27' E 118°01'0 0.0
2016-Feb-09 10:32N 24°27' E 118°01'0 0.0
2016-Feb-09 09:32N 24°27' E 118°01'0 0.0
2016-Feb-09 08:32N 24°27' E 118°01'0 0.0
2016-Feb-09 07:32N 24°27' E 118°01'0 0.0
2016-Feb-09 06:32N 24°27' E 118°01'0 0.0
2016-Feb-09 05:29N 24°27' E 118°01'0 0.0
2016-Feb-09 04:32N 24°27' E 118°01'0 0.0
2016-Feb-09 03:26N 24°27' E 118°01'0 0.0
2016-Feb-09 02:32N 24°27' E 118°01'0 0.0
2016-Feb-09 01:32N 24°27' E 118°01'0 0.0
2016-Feb-09 00:32N 24°27' E 118°01'0 0.0
2016-Feb-08 23:32N 24°27' E 118°01'0 0.0
2016-Feb-08 22:29N 24°27' E 118°01'0 0.0
2016-Feb-08 21:29N 24°27' E 118°01'0 0.0
2016-Feb-08 20:32N 24°27' E 118°01'0 0.0
2016-Feb-08 19:32N 24°27' E 118°01'0 0.0
2016-Feb-08 18:32N 24°27' E 118°01'0 0.0
2016-Feb-08 17:32N 24°27' E 118°01'0 0.0
2016-Feb-08 16:32N 24°27' E 118°01'0 0.0
2016-Feb-08 15:32N 24°27' E 118°01'0 0.0
2016-Feb-08 14:32N 24°27' E 118°01'0 0.0
2016-Feb-08 13:32N 24°27' E 118°01'0 0.0
2016-Feb-08 12:31N 24°27' E 118°01'0 0.0
2016-Feb-08 11:25N 24°27' E 118°01'0 0.0
2016-Feb-08 10:31N 24°27' E 118°01'0 0.1
2016-Feb-08 09:33N 24°27' E 118°01'7 7.2
2016-Feb-08 08:33N 24°23' E 118°08'1312.9
2016-Feb-08 07:33N 24°14' E 118°18'1615.8
2016-Feb-08 06:33N 24°15' E 118°35'1818.0
2016-Feb-08 05:33N 24°20' E 118°54'1917.9
2016-Feb-08 04:28N 24°30' E 119°12'1617.4
2016-Feb-08 03:34N 24°39' E 119°27'1717.0
2016-Feb-08 02:33N 24°48' E 119°43'1817.3
2016-Feb-08 01:32N 24°58' E 119°59'2118.7
2016-Feb-08 00:25N 25°10' E 120°17'1618.9
2016-Feb-07 23:33N 25°19' E 120°32'27517.8
2016-Feb-07 08:07N 29°33' E 122°31'1616.3
2016-Feb-07 07:10N 29°44' E 122°20'813.6
2016-Feb-07 06:34N 29°50' E 122°13'9 1.1
2016-Feb-06 22:29N 29°53' E 122°03'0 0.0
2016-Feb-06 07:09N 29°53' E 122°03'0 0.0
2016-Feb-05 22:31N 29°53' E 122°03'2 1.9
2016-Feb-05 21:33N 29°55' E 122°04'1110.6
2016-Feb-05 20:33N 29°49' E 122°14'10 8.5
2016-Feb-05 19:26N 29°44' E 122°23'12 1.4
2016-Feb-05 11:04N 29°44' E 122°37'3 0.1
2016-Feb-04 11:31N 29°45' E 122°39'1915.2
2016-Feb-04 10:16N 30°01' E 122°51'1714.5
2016-Feb-04 09:08N 30°18' E 122°52'814.6
2016-Feb-04 08:33N 30°25' E 122°47'1414.4
2016-Feb-04 07:33N 30°30' E 122°31'1414.0
2016-Feb-04 06:31N 30°33' E 122°15'1210.4
2016-Feb-04 05:24N 30°38' E 122°03'0 0.0
2016-Feb-03 15:12N 30°38' E 122°03'1 2.2
2016-Feb-03 14:33N 30°37' E 122°04'1111.3
2016-Feb-03 13:33N 30°33' E 122°17'8 7.8
2016-Feb-03 12:33N 30°32' E 122°25'1915.9
2016-Feb-03 11:23N 30°27' E 122°46'  
2016-Jan-31 12:23N 30°22' E 122°47'0 0.0
2016-Jan-31 11:18N 30°22' E 122°47'0 0.1
2016-Jan-31 10:31N 30°22' E 122°47'0 0.0
2016-Jan-31 09:26N 30°22' E 122°47'0 0.1
2016-Jan-31 08:32N 30°22' E 122°47'  

Dump ship's entire track history